createdAt,value
2022-09-23T00:01:20.152Z,5.80
2022-09-23T00:03:48.712Z,5.80
2022-09-23T00:06:22.083Z,5.72
2022-09-23T00:08:50.058Z,5.80
2022-09-23T00:11:18.957Z,5.69
2022-09-23T00:13:48.880Z,5.73
2022-09-23T00:16:20.633Z,5.80
2022-09-23T00:18:50.285Z,5.66
2022-09-23T00:21:18.630Z,5.58
2022-09-23T00:23:45.938Z,5.52
2022-09-23T00:26:15.838Z,5.49
2022-09-23T00:28:43.700Z,5.46
2022-09-23T00:31:16.820Z,5.55
2022-09-23T00:33:44.207Z,5.54
2022-09-23T00:36:17.204Z,5.47
2022-09-23T00:38:45.217Z,5.54
2022-09-23T00:41:15.628Z,5.52
2022-09-23T00:43:44.325Z,5.49
2022-09-23T00:46:26.537Z,5.43
2022-09-23T00:49:00.057Z,5.51
2022-09-23T00:51:33.562Z,5.56
2022-09-23T00:54:02.133Z,5.51
2022-09-23T00:56:31.896Z,5.46
2022-09-23T00:59:00.862Z,5.42
2022-09-23T01:01:28.305Z,5.38
2022-09-23T01:03:58.540Z,5.46
2022-09-23T01:06:26.322Z,5.39
2022-09-23T01:08:53.639Z,5.42
2022-09-23T01:11:25.339Z,5.28
2022-09-23T01:14:17.095Z,5.31
2022-09-23T01:16:48.314Z,5.30
2022-09-23T01:20:06.522Z,5.18
2022-09-23T01:22:43.787Z,5.19
2022-09-23T01:25:16.884Z,5.19
2022-09-23T01:28:09.270Z,5.17
2022-09-23T01:30:58.408Z,5.19
2022-09-23T01:33:43.846Z,5.14
2022-09-23T01:36:39.751Z,5.18
2022-09-23T01:39:27.121Z,5.18
2022-09-23T01:42:17.733Z,5.11
2022-09-23T01:45:19.481Z,5.02
2022-09-23T01:47:56.062Z,5.05
2022-09-23T01:50:49.837Z,5.02
2022-09-23T01:53:26.995Z,5.09
2022-09-23T01:56:00.326Z,5.08
2022-09-23T01:58:41.918Z,5.11
2022-09-23T02:01:16.436Z,5.10
2022-09-23T02:04:08.628Z,5.08
2022-09-23T02:06:48.200Z,5.03
2022-09-23T02:09:19.403Z,5.02
2022-09-23T02:11:52.513Z,5.00
2022-09-23T02:14:25.283Z,5.04
2022-09-23T02:16:56.219Z,4.93
2022-09-23T02:19:37.396Z,4.98
2022-09-23T02:22:09.200Z,5.01
2022-09-23T02:24:38.559Z,4.91
2022-09-23T02:27:30.629Z,4.95
2022-09-23T02:30:15.845Z,4.92
2022-09-23T02:33:02.116Z,4.88
2022-09-23T02:35:33.441Z,4.88
2022-09-23T02:38:06.902Z,4.85
2022-09-23T02:40:46.277Z,4.87
2022-09-23T02:43:22.366Z,4.86
2022-09-23T02:53:00.845Z,4.78
2022-09-23T02:55:32.424Z,4.80
2022-09-23T02:58:01.710Z,4.74
2022-09-23T03:01:00.438Z,4.83
2022-09-23T03:03:59.948Z,4.79
2022-09-23T03:06:47.235Z,4.74
2022-09-23T03:09:25.665Z,4.72
2022-09-23T03:12:09.092Z,4.67
2022-09-23T03:14:59.028Z,4.55
2022-09-23T03:17:34.384Z,4.59
2022-09-23T03:20:15.570Z,4.51
2022-09-23T03:22:48.961Z,4.57
2022-09-23T03:25:21.533Z,4.54
2022-09-23T03:27:48.763Z,4.54
2022-09-23T03:30:16.589Z,4.50
2022-09-23T03:32:47.128Z,4.46
2022-09-23T03:35:14.750Z,4.46
2022-09-23T03:37:52.490Z,4.45
2022-09-23T03:40:19.638Z,4.45
2022-09-23T03:42:49.194Z,4.46
2022-09-23T03:45:21.772Z,4.44
2022-09-23T03:47:49.154Z,4.44
2022-09-23T03:50:20.210Z,4.40
2022-09-23T03:52:49.637Z,4.47
2022-09-23T03:55:19.520Z,4.43
2022-09-23T03:57:47.102Z,4.44
2022-09-23T04:00:16.845Z,4.37
2022-09-23T04:02:44.639Z,4.32
2022-09-23T04:05:13.659Z,4.34
2022-09-23T04:07:41.311Z,4.41
2022-09-23T04:10:10.001Z,4.39
2022-09-23T04:12:37.848Z,4.40
2022-09-23T04:15:05.627Z,4.38
2022-09-23T04:17:33.004Z,4.30
2022-09-23T04:20:00.621Z,4.30
2022-09-23T04:22:28.002Z,4.32
2022-09-23T04:24:55.177Z,4.28
2022-09-23T04:27:22.431Z,4.23
2022-09-23T04:29:49.774Z,4.21
2022-09-23T04:32:17.005Z,4.23
2022-09-23T04:34:44.159Z,4.25
2022-09-23T04:37:11.335Z,4.25
2022-09-23T04:39:38.535Z,4.21
2022-09-23T04:42:05.904Z,4.16
2022-09-23T04:44:34.884Z,4.24
2022-09-23T04:47:02.805Z,4.18
2022-09-23T04:49:33.689Z,4.20
2022-09-23T04:52:02.862Z,4.19
2022-09-23T04:54:33.122Z,4.20
2022-09-23T04:57:00.415Z,4.24
2022-09-23T04:59:28.091Z,4.22
2022-09-23T05:01:55.507Z,4.20
2022-09-23T05:04:22.922Z,4.14
2022-09-23T05:06:50.124Z,4.15
2022-09-23T05:09:18.122Z,4.19
2022-09-23T05:11:45.739Z,4.20
2022-09-23T05:14:13.382Z,4.15
2022-09-23T05:16:41.006Z,4.18
2022-09-23T05:19:08.396Z,4.16
2022-09-23T05:21:38.614Z,4.16
2022-09-23T05:24:06.028Z,4.18
2022-09-23T05:26:33.321Z,4.19
2022-09-23T05:29:00.855Z,4.29
2022-09-23T05:31:29.974Z,4.29
2022-09-23T05:33:59.260Z,4.35
2022-09-23T05:36:28.357Z,4.38
2022-09-23T05:38:56.658Z,4.32
2022-09-23T05:41:25.387Z,4.44
2022-09-23T05:43:54.005Z,4.51
2022-09-23T05:46:28.003Z,4.50
2022-09-23T05:49:01.798Z,4.57
2022-09-23T05:51:31.638Z,4.57
2022-09-23T05:54:00.658Z,4.60
2022-09-23T05:56:28.612Z,4.62
2022-09-23T05:59:00.434Z,4.70
2022-09-23T06:01:32.378Z,4.71
2022-09-23T06:04:01.202Z,4.86
2022-09-23T06:06:31.354Z,5.13
2022-09-23T06:08:59.394Z,5.10
2022-09-23T06:11:27.093Z,5.13
2022-09-23T06:13:56.186Z,5.22
2022-09-23T06:16:23.428Z,5.40
2022-09-23T06:18:50.697Z,5.43
2022-09-23T06:21:18.335Z,5.41
2022-09-23T06:23:47.446Z,5.40
2022-09-23T06:26:16.433Z,5.54
2022-09-23T06:28:46.759Z,5.61
2022-09-23T06:31:15.753Z,5.67
2022-09-23T06:33:45.218Z,5.79
2022-09-23T06:36:17.323Z,5.87
2022-09-23T06:38:51.884Z,6.00
2022-09-23T06:41:20.794Z,6.08
2022-09-23T06:43:48.328Z,6.25
2022-09-23T06:46:17.341Z,6.31
2022-09-23T06:48:46.247Z,6.29
2022-09-23T06:51:20.388Z,6.42
2022-09-23T06:53:49.005Z,6.42
2022-09-23T06:56:19.851Z,6.37
2022-09-23T06:58:47.568Z,6.56
2022-09-23T07:01:16.837Z,6.70
2022-09-23T07:03:46.690Z,6.84
2022-09-23T07:06:14.287Z,7.06
2022-09-23T07:08:44.104Z,7.22
2022-09-23T07:11:13.191Z,7.35
2022-09-23T07:13:42.288Z,7.39
2022-09-23T07:16:11.394Z,7.50
2022-09-23T07:18:39.186Z,7.64
2022-09-23T07:21:27.917Z,7.80
2022-09-23T07:23:58.087Z,7.90
2022-09-23T07:26:26.052Z,7.96
2022-09-23T07:28:56.859Z,8.09
2022-09-23T07:31:35.188Z,8.19
2022-09-23T07:34:11.683Z,8.25
2022-09-23T07:36:40.968Z,8.45
2022-09-23T07:39:11.280Z,8.48
2022-09-23T07:41:39.160Z,8.59
2022-09-23T07:44:06.433Z,8.82
2022-09-23T07:46:35.914Z,9.07
2022-09-23T07:49:04.517Z,9.41
2022-09-23T07:51:37.195Z,10.05
2022-09-23T07:54:11.395Z,10.78
2022-09-23T07:56:38.958Z,11.72
2022-09-23T07:59:09.104Z,12.24
2022-09-23T08:01:42.240Z,12.32
2022-09-23T08:04:21.954Z,12.06
2022-09-23T08:07:07.994Z,11.62
2022-09-23T08:09:41.821Z,11.40
2022-09-23T08:12:16.540Z,11.18
2022-09-23T08:14:44.074Z,11.15
2022-09-23T08:17:14.563Z,11.16
2022-09-23T08:19:42.146Z,11.19
2022-09-23T08:22:09.431Z,11.33
2022-09-23T08:24:36.586Z,11.48
2022-09-23T08:27:04.210Z,11.63
2022-09-23T08:29:31.353Z,11.80
2022-09-23T08:31:59.850Z,11.87
2022-09-23T08:34:28.208Z,11.98
2022-09-23T08:36:55.458Z,12.09
2022-09-23T08:39:23.184Z,12.34
2022-09-23T08:41:58.476Z,12.51
2022-09-23T08:44:38.919Z,12.62
2022-09-23T08:47:10.717Z,12.72
2022-09-23T08:49:50.982Z,12.91
2022-09-23T08:52:29.103Z,13.00
2022-09-23T08:54:56.455Z,13.08
2022-09-23T08:57:35.759Z,13.17
2022-09-23T09:00:04.277Z,13.41
2022-09-23T09:02:35.430Z,13.61
2022-09-23T09:05:07.238Z,13.71
2022-09-23T09:07:38.442Z,13.78
2022-09-23T09:10:25.785Z,13.96
2022-09-23T09:13:09.501Z,14.06
2022-09-23T09:15:57.184Z,14.26
2022-09-23T09:18:26.355Z,14.48
2022-09-23T09:21:00.756Z,14.63
2022-09-23T09:23:40.443Z,14.73
2022-09-23T09:26:15.304Z,14.96
2022-09-23T09:28:49.087Z,15.15
2022-09-23T09:31:31.691Z,15.16
2022-09-23T09:34:16.070Z,15.39
2022-09-23T09:36:50.435Z,15.43
2022-09-23T09:39:17.905Z,15.48
2022-09-23T09:41:50.712Z,15.57
2022-09-23T09:44:37.152Z,15.65
2022-09-23T09:47:16.579Z,15.77
2022-09-23T09:50:13.983Z,15.75
2022-09-23T09:52:43.123Z,15.83
2022-09-23T09:55:13.221Z,15.89
2022-09-23T09:57:48.068Z,15.86
2022-09-23T10:00:25.773Z,15.87
2022-09-23T10:02:59.393Z,15.96
2022-09-23T10:05:56.758Z,15.87
2022-09-23T10:08:26.831Z,15.88
2022-09-23T10:11:15.239Z,15.88
2022-09-23T10:14:03.083Z,15.90
2022-09-23T10:16:32.615Z,15.93
2022-09-23T10:19:01.978Z,16.00
2022-09-23T10:21:37.662Z,16.22
2022-09-23T10:24:06.798Z,16.08
2022-09-23T10:26:43.784Z,16.03
2022-09-23T10:29:33.813Z,16.00
2022-09-23T10:32:27.062Z,15.91
2022-09-23T10:35:15.504Z,16.09
2022-09-23T10:37:57.069Z,15.98
2022-09-23T10:40:48.649Z,16.05
2022-09-23T10:43:58.699Z,16.15
2022-09-23T10:46:41.578Z,16.21
2022-09-23T10:49:16.407Z,16.14
2022-09-23T10:51:49.317Z,16.18
2022-09-23T10:54:40.917Z,16.25
2022-09-23T10:57:38.172Z,16.43
2022-09-23T11:00:14.299Z,16.22
2022-09-23T11:02:47.684Z,15.93
2022-09-23T11:05:46.044Z,15.41
2022-09-23T11:08:50.721Z,15.11
2022-09-23T11:11:21.121Z,14.84
2022-09-23T11:14:17.810Z,14.88
2022-09-23T11:17:14.755Z,14.65
2022-09-23T11:19:56.556Z,14.57
2022-09-23T11:22:48.548Z,14.58
2022-09-23T11:25:54.434Z,14.63
2022-09-23T11:29:00.527Z,14.91
2022-09-23T11:32:04.465Z,15.22
2022-09-23T11:34:59.832Z,15.61
2022-09-23T11:37:44.813Z,15.47
2022-09-23T11:40:20.251Z,15.66
2022-09-23T11:42:58.246Z,15.76
2022-09-23T11:45:37.834Z,15.98
2022-09-23T11:48:17.155Z,16.05
2022-09-23T11:50:56.443Z,15.77
2022-09-23T11:53:40.455Z,15.60
2022-09-23T11:56:12.029Z,15.60
2022-09-23T11:58:59.561Z,15.64
2022-09-23T12:01:37.900Z,15.69
2022-09-23T12:04:21.571Z,15.72
2022-09-23T12:06:59.731Z,15.70
2022-09-23T12:09:58.407Z,15.63
2022-09-23T12:12:40.595Z,15.63
2022-09-23T12:15:34.550Z,15.60
2022-09-23T12:18:19.649Z,15.49
2022-09-23T12:21:07.362Z,15.45
2022-09-23T12:23:57.241Z,15.41
2022-09-23T12:26:26.920Z,15.31
2022-09-23T12:29:01.568Z,15.23
2022-09-23T12:31:34.820Z,15.24
2022-09-23T12:34:28.021Z,15.28
2022-09-23T12:37:03.162Z,15.34
2022-09-23T12:39:33.054Z,15.36
2022-09-23T12:42:03.329Z,15.36
2022-09-23T12:44:36.874Z,15.37
2022-09-23T12:47:34.750Z,15.53
2022-09-23T12:50:02.351Z,15.68
2022-09-23T12:52:32.833Z,15.74
2022-09-23T12:55:26.505Z,16.07
2022-09-23T12:57:54.031Z,16.31
2022-09-23T13:00:24.245Z,16.38
2022-09-23T13:03:19.874Z,16.45
2022-09-23T13:06:17.157Z,16.34
2022-09-23T13:08:47.150Z,16.03
2022-09-23T13:11:22.704Z,15.94
2022-09-23T13:13:51.011Z,15.93
2022-09-23T13:16:50.543Z,15.84
2022-09-23T13:19:26.745Z,15.71
2022-09-23T13:21:53.946Z,15.69
2022-09-23T13:24:21.116Z,15.69
2022-09-23T13:26:52.557Z,15.61
2022-09-23T13:29:46.433Z,15.60
2022-09-23T13:32:19.002Z,15.51
2022-09-23T13:34:56.602Z,15.42
2022-09-23T13:37:29.823Z,15.56
2022-09-23T13:40:29.250Z,15.61
2022-09-23T13:43:00.961Z,15.63
2022-09-23T13:45:31.179Z,15.50
2022-09-23T13:48:03.326Z,15.28
2022-09-23T13:50:34.655Z,15.13
2022-09-23T13:53:08.657Z,15.15
2022-09-23T13:55:38.886Z,15.40
2022-09-23T13:58:21.600Z,15.64
2022-09-23T14:00:50.097Z,15.88
2022-09-23T14:03:35.387Z,16.06
2022-09-23T14:06:14.531Z,16.18
2022-09-23T14:08:46.538Z,16.24
2022-09-23T14:11:35.455Z,16.01
2022-09-23T14:14:07.771Z,15.87
2022-09-23T14:16:38.876Z,15.75
2022-09-23T14:19:08.118Z,15.95
2022-09-23T14:21:38.320Z,15.97
2022-09-23T14:24:16.128Z,16.04
2022-09-23T14:26:46.893Z,16.19
2022-09-23T14:29:24.799Z,16.06
2022-09-23T14:32:00.745Z,16.02
2022-09-23T14:34:59.834Z,16.17
2022-09-23T14:38:01.088Z,16.20
2022-09-23T14:40:50.699Z,16.11
2022-09-23T14:43:23.748Z,16.04
2022-09-23T14:45:54.942Z,15.92
2022-09-23T14:48:40.447Z,15.77
2022-09-23T14:51:13.249Z,15.83
2022-09-23T14:53:48.824Z,15.88
2022-09-23T14:56:21.728Z,15.84
2022-09-23T14:59:00.205Z,15.92
2022-09-23T15:01:30.754Z,15.96
2022-09-23T15:03:59.854Z,15.92
2022-09-23T15:06:27.728Z,16.09
2022-09-23T15:08:55.680Z,15.96
2022-09-23T15:11:23.152Z,15.94
2022-09-23T15:13:52.792Z,15.92
2022-09-23T15:16:28.025Z,15.82
2022-09-23T15:18:58.473Z,15.70
2022-09-23T15:21:40.941Z,15.59
2022-09-23T15:24:33.237Z,15.41
2022-09-23T15:27:00.501Z,15.37
2022-09-23T15:29:27.742Z,15.34
2022-09-23T15:31:55.596Z,15.27
2022-09-23T15:34:23.130Z,15.33
2022-09-23T15:36:50.263Z,15.37
2022-09-23T15:39:17.465Z,15.39
2022-09-23T15:41:45.064Z,15.24
2022-09-23T15:44:18.607Z,15.18
2022-09-23T15:46:48.393Z,15.16
2022-09-23T15:49:29.081Z,14.96
2022-09-23T15:51:59.860Z,14.81
2022-09-23T15:54:36.738Z,14.57
2022-09-23T15:57:04.219Z,14.40
2022-09-23T15:59:31.898Z,14.26
2022-09-23T16:02:03.787Z,14.11
2022-09-23T16:04:31.893Z,14.03
2022-09-23T16:06:59.156Z,14.02
2022-09-23T16:09:30.777Z,13.78
2022-09-23T16:11:58.161Z,13.61
2022-09-23T16:14:25.500Z,13.50
2022-09-23T16:16:52.701Z,13.37
2022-09-23T16:19:19.897Z,13.26
2022-09-23T16:21:47.094Z,13.22
2022-09-23T16:24:18.988Z,13.14
2022-09-23T16:26:48.205Z,13.11
2022-09-23T16:29:15.452Z,13.06
2022-09-23T16:31:43.011Z,13.06
2022-09-23T16:34:10.172Z,13.08
2022-09-23T16:36:41.278Z,13.04
2022-09-23T16:39:12.360Z,13.00
2022-09-23T16:41:40.406Z,13.02
2022-09-23T16:44:10.672Z,12.96
2022-09-23T16:46:38.180Z,12.92
2022-09-23T16:49:05.504Z,12.86
2022-09-23T16:51:38.632Z,12.77
2022-09-23T16:54:10.253Z,12.82
2022-09-23T16:56:40.432Z,12.90
2022-09-23T16:59:07.754Z,12.82
2022-09-23T17:01:53.728Z,12.65
2022-09-23T17:04:21.514Z,12.58
2022-09-23T17:06:52.865Z,12.50
2022-09-23T17:09:22.928Z,12.46
2022-09-23T17:12:08.870Z,12.37
2022-09-23T17:14:36.239Z,12.26
2022-09-23T17:17:03.447Z,12.19
2022-09-23T17:19:30.901Z,12.21
2022-09-23T17:21:58.353Z,12.24
2022-09-23T17:24:25.714Z,12.25
2022-09-23T17:26:53.555Z,12.19
2022-09-23T17:29:20.737Z,12.16
2022-09-23T17:31:49.130Z,12.07
2022-09-23T17:34:19.273Z,11.99
2022-09-23T17:36:46.541Z,11.98
2022-09-23T17:39:14.124Z,12.07
2022-09-23T17:41:41.286Z,12.02
2022-09-23T17:44:11.401Z,12.06
2022-09-23T17:46:38.619Z,12.04
2022-09-23T17:49:08.074Z,11.92
2022-09-23T17:51:35.327Z,11.93
2022-09-23T17:54:02.516Z,11.96
2022-09-23T17:56:30.941Z,11.86
2022-09-23T17:59:01.664Z,11.81
2022-09-23T18:01:29.970Z,11.89
2022-09-23T18:04:02.348Z,11.79
2022-09-23T18:06:32.577Z,11.71
2022-09-23T18:09:03.900Z,11.75
2022-09-23T18:11:37.353Z,11.66
2022-09-23T18:14:11.914Z,11.65
2022-09-23T18:16:42.287Z,11.58
2022-09-23T18:19:17.750Z,11.44
2022-09-23T18:21:48.382Z,11.39
2022-09-23T18:27:02.871Z,11.43
2022-09-23T18:29:30.116Z,11.38
2022-09-23T18:31:58.848Z,11.34
2022-09-23T18:34:26.080Z,11.32
2022-09-23T18:36:56.095Z,11.24
2022-09-23T18:39:23.421Z,11.27
2022-09-23T18:41:51.381Z,11.30
2022-09-23T18:44:21.170Z,11.26
2022-09-23T18:46:48.655Z,11.14
2022-09-23T18:49:35.487Z,11.13
2022-09-23T18:52:04.404Z,11.02
2022-09-23T18:54:31.759Z,10.99
2022-09-23T18:56:59.320Z,10.93
2022-09-23T18:59:29.732Z,10.85
2022-09-23T19:01:57.480Z,10.84
2022-09-23T19:04:25.547Z,10.84
2022-09-23T19:06:54.161Z,10.81
2022-09-23T19:09:22.730Z,10.75
2022-09-23T19:11:52.410Z,10.77
2022-09-23T19:14:20.071Z,10.76
2022-09-23T19:16:49.249Z,10.75
2022-09-23T19:19:16.560Z,10.70
2022-09-23T19:21:43.760Z,10.57
2022-09-23T19:24:14.430Z,10.49
2022-09-23T19:26:46.045Z,10.45
2022-09-23T19:29:16.224Z,10.53
2022-09-23T19:31:44.763Z,10.58
2022-09-23T19:34:17.864Z,10.60
2022-09-23T19:36:46.455Z,10.48
2022-09-23T19:39:21.442Z,10.40
2022-09-23T19:41:50.479Z,10.44
2022-09-23T19:44:19.897Z,10.42
2022-09-23T19:46:53.457Z,10.42
2022-09-23T19:49:23.992Z,10.37
2022-09-23T19:51:51.079Z,10.36
2022-09-23T19:54:19.088Z,10.31
2022-09-23T19:56:47.672Z,10.29
2022-09-23T19:59:18.480Z,10.18
2022-09-23T20:01:50.098Z,10.18
2022-09-23T20:04:17.331Z,10.12
2022-09-23T20:06:46.087Z,10.09
2022-09-23T20:09:13.721Z,9.99
2022-09-23T20:11:43.225Z,9.92
2022-09-23T20:14:12.178Z,9.82
2022-09-23T20:16:39.572Z,9.84
2022-09-23T20:19:06.876Z,9.78
2022-09-23T20:21:35.418Z,9.84
2022-09-23T20:24:05.658Z,9.88
2022-09-23T20:26:51.875Z,9.91
2022-09-23T20:29:19.006Z,9.90
2022-09-23T20:31:46.286Z,9.85
2022-09-23T20:34:13.474Z,9.81
2022-09-23T20:36:41.833Z,9.73
2022-09-23T20:39:10.128Z,9.71
2022-09-23T20:41:39.439Z,9.70
2022-09-23T20:44:12.987Z,9.69
2022-09-23T20:46:46.926Z,9.67
2022-09-23T20:49:16.462Z,9.67
2022-09-23T20:51:43.542Z,9.64
2022-09-23T20:54:12.068Z,9.57
2022-09-23T20:56:39.481Z,9.58
2022-09-23T20:59:06.692Z,9.57
2022-09-23T21:01:35.294Z,9.52
2022-09-23T21:04:04.976Z,9.52
2022-09-23T21:06:34.481Z,9.44
2022-09-23T21:09:01.790Z,9.46
2022-09-23T21:11:30.126Z,9.41
2022-09-23T21:13:59.148Z,9.40
2022-09-23T21:16:26.509Z,9.41
2022-09-23T21:18:53.734Z,9.30
2022-09-23T21:21:22.321Z,9.25
2022-09-23T21:23:51.388Z,9.23
2022-09-23T21:26:23.315Z,9.26
2022-09-23T21:28:57.627Z,9.22
2022-09-23T21:31:27.579Z,9.17
2022-09-23T21:33:56.807Z,9.07
2022-09-23T21:36:24.776Z,9.15
2022-09-23T21:38:52.921Z,9.13
2022-09-23T21:41:20.319Z,9.18
2022-09-23T21:43:49.920Z,9.19
2022-09-23T21:46:20.496Z,9.18
2022-09-23T21:48:53.921Z,9.18
2022-09-23T21:51:26.432Z,9.18
2022-09-23T21:53:57.288Z,9.19
2022-09-23T21:56:27.514Z,9.15
2022-09-23T21:58:56.333Z,9.09
2022-09-23T22:01:26.688Z,9.08
2022-09-23T22:04:07.957Z,9.02
2022-09-23T22:06:38.361Z,9.08
2022-09-23T22:09:12.013Z,9.05
2022-09-23T22:11:58.674Z,9.05
2022-09-23T22:14:26.615Z,9.11
2022-09-23T22:16:57.618Z,9.03
2022-09-23T22:19:27.619Z,8.97
2022-09-23T22:21:55.850Z,8.94
2022-09-23T22:24:23.181Z,9.02
2022-09-23T22:26:51.085Z,8.99
2022-09-23T22:29:36.933Z,9.08
2022-09-23T22:32:24.594Z,9.05
2022-09-23T22:34:52.689Z,8.97
2022-09-23T22:37:25.543Z,9.02
2022-09-23T22:39:53.533Z,9.00
2022-09-23T22:42:21.851Z,8.92
2022-09-23T22:44:49.382Z,8.93
2022-09-23T22:47:18.032Z,9.03
2022-09-23T22:49:48.939Z,8.96
2022-09-23T22:52:21.062Z,8.95
2022-09-23T22:54:48.453Z,8.98
2022-09-23T22:57:15.646Z,8.93
2022-09-23T22:59:48.260Z,8.95
2022-09-23T23:02:17.844Z,8.86
2022-09-23T23:04:47.223Z,8.83
2022-09-23T23:07:20.331Z,8.81
2022-09-23T23:09:49.636Z,8.84
2022-09-23T23:12:18.941Z,8.90
2022-09-23T23:14:46.858Z,8.85
2022-09-23T23:17:14.035Z,8.82
2022-09-23T23:19:41.127Z,8.79
2022-09-23T23:22:08.537Z,8.75
2022-09-23T23:24:35.688Z,8.75
2022-09-23T23:27:02.783Z,8.75
2022-09-23T23:29:29.963Z,8.78
2022-09-23T23:31:57.095Z,8.81
2022-09-23T23:34:24.332Z,8.80
2022-09-23T23:36:55.122Z,8.81
2022-09-23T23:39:24.332Z,8.71
2022-09-23T23:41:53.319Z,8.70
2022-09-23T23:44:21.141Z,8.72
2022-09-23T23:46:49.340Z,8.73
2022-09-23T23:49:16.548Z,8.82
2022-09-23T23:51:43.704Z,8.70
2022-09-23T23:54:12.286Z,8.69
2022-09-23T23:56:39.515Z,8.74
2022-09-23T23:59:06.656Z,8.71
